sensor_id;sensor_type;location;lat;lon;timestamp;P1;durP1;ratioP1;P2;durP2;ratioP2
44120;SDS011;29783;52.504;13.478;2022-08-19T00:00:19;8.27;;;7.40;;
44120;SDS011;29783;52.504;13.478;2022-08-19T00:02:45;12.25;;;7.95;;
44120;SDS011;29783;52.504;13.478;2022-08-19T00:05:11;10.23;;;7.68;;
44120;SDS011;29783;52.504;13.478;2022-08-19T00:07:38;8.50;;;7.63;;
44120;SDS011;29783;52.504;13.478;2022-08-19T00:10:05;8.00;;;7.03;;
44120;SDS011;29783;52.504;13.478;2022-08-19T00:12:33;10.15;;;7.63;;
44120;SDS011;29783;52.504;13.478;2022-08-19T00:15:00;9.32;;;7.60;;
44120;SDS011;29783;52.504;13.478;2022-08-19T00:17:26;11.45;;;7.88;;
44120;SDS011;29783;52.504;13.478;2022-08-19T00:19:52;11.23;;;8.02;;
44120;SDS011;29783;52.504;13.478;2022-08-19T00:22:18;10.30;;;8.15;;
44120;SDS011;29783;52.504;13.478;2022-08-19T00:24:44;9.23;;;8.23;;
44120;SDS011;29783;52.504;13.478;2022-08-19T00:27:10;8.77;;;7.88;;
44120;SDS011;29783;52.504;13.478;2022-08-19T00:29:37;11.02;;;8.38;;
44120;SDS011;29783;52.504;13.478;2022-08-19T00:32:03;8.45;;;7.65;;
44120;SDS011;29783;52.504;13.478;2022-08-19T00:34:29;8.60;;;7.75;;
44120;SDS011;29783;52.504;13.478;2022-08-19T00:36:55;10.63;;;8.40;;
44120;SDS011;29783;52.504;13.478;2022-08-19T00:39:22;14.88;;;8.63;;
44120;SDS011;29783;52.504;13.478;2022-08-19T00:41:49;14.77;;;9.35;;
44120;SDS011;29783;52.504;13.478;2022-08-19T00:44:17;17.20;;;9.27;;
44120;SDS011;29783;52.504;13.478;2022-08-19T00:46:46;23.08;;;11.07;;
44120;SDS011;29783;52.504;13.478;2022-08-19T00:49:16;13.55;;;11.57;;
44120;SDS011;29783;52.504;13.478;2022-08-19T00:52:09;13.82;;;12.23;;
44120;SDS011;29783;52.504;13.478;2022-08-19T00:54:39;14.45;;;13.02;;
44120;SDS011;29783;52.504;13.478;2022-08-19T00:57:07;16.08;;;13.95;;
44120;SDS011;29783;52.504;13.478;2022-08-19T00:59:37;15.25;;;13.73;;
44120;SDS011;29783;52.504;13.478;2022-08-19T01:02:06;17.17;;;14.02;;
44120;SDS011;29783;52.504;13.478;2022-08-19T01:04:32;15.77;;;14.15;;
44120;SDS011;29783;52.504;13.478;2022-08-19T01:06:57;14.75;;;13.18;;
44120;SDS011;29783;52.504;13.478;2022-08-19T01:09:24;18.25;;;14.27;;
44120;SDS011;29783;52.504;13.478;2022-08-19T01:11:50;16.65;;;14.88;;
44120;SDS011;29783;52.504;13.478;2022-08-19T01:14:16;16.38;;;14.88;;
44120;SDS011;29783;52.504;13.478;2022-08-19T01:16:43;17.80;;;15.93;;
44120;SDS011;29783;52.504;13.478;2022-08-19T01:19:26;17.23;;;14.98;;
44120;SDS011;29783;52.504;13.478;2022-08-19T01:21:59;18.15;;;15.43;;
44120;SDS011;29783;52.504;13.478;2022-08-19T01:24:28;18.38;;;16.58;;
44120;SDS011;29783;52.504;13.478;2022-08-19T01:26:56;18.90;;;17.10;;
44120;SDS011;29783;52.504;13.478;2022-08-19T01:29:22;21.08;;;16.35;;
44120;SDS011;29783;52.504;13.478;2022-08-19T01:31:48;24.25;;;17.15;;
44120;SDS011;29783;52.504;13.478;2022-08-19T01:34:17;20.08;;;16.95;;
44120;SDS011;29783;52.504;13.478;2022-08-19T01:36:44;22.95;;;17.63;;
44120;SDS011;29783;52.504;13.478;2022-08-19T01:39:13;18.83;;;16.48;;
44120;SDS011;29783;52.504;13.478;2022-08-19T01:41:41;16.88;;;14.82;;
44120;SDS011;29783;52.504;13.478;2022-08-19T01:44:08;18.42;;;16.40;;
44120;SDS011;29783;52.504;13.478;2022-08-19T01:46:35;25.10;;;16.08;;
44120;SDS011;29783;52.504;13.478;2022-08-19T01:49:02;20.88;;;15.77;;
44120;SDS011;29783;52.504;13.478;2022-08-19T01:51:29;21.98;;;16.20;;
44120;SDS011;29783;52.504;13.478;2022-08-19T01:53:55;19.15;;;16.70;;
44120;SDS011;29783;52.504;13.478;2022-08-19T01:56:21;18.20;;;16.30;;
44120;SDS011;29783;52.504;13.478;2022-08-19T01:58:55;25.83;;;17.52;;
44120;SDS011;29783;52.504;13.478;2022-08-19T02:01:26;25.23;;;13.32;;
44120;SDS011;29783;52.504;13.478;2022-08-19T02:03:57;24.63;;;14.68;;
44120;SDS011;29783;52.504;13.478;2022-08-19T02:06:25;23.45;;;14.65;;
44120;SDS011;29783;52.504;13.478;2022-08-19T02:08:51;18.05;;;12.57;;
44120;SDS011;29783;52.504;13.478;2022-08-19T02:11:31;16.15;;;12.32;;
44120;SDS011;29783;52.504;13.478;2022-08-19T02:13:59;16.33;;;14.10;;
44120;SDS011;29783;52.504;13.478;2022-08-19T02:16:27;20.50;;;13.63;;
44120;SDS011;29783;52.504;13.478;2022-08-19T02:18:53;18.30;;;16.45;;
44120;SDS011;29783;52.504;13.478;2022-08-19T02:21:20;24.65;;;17.52;;
44120;SDS011;29783;52.504;13.478;2022-08-19T02:23:48;24.60;;;19.75;;
44120;SDS011;29783;52.504;13.478;2022-08-19T02:26:14;21.73;;;19.60;;
44120;SDS011;29783;52.504;13.478;2022-08-19T02:28:42;16.90;;;15.30;;
44120;SDS011;29783;52.504;13.478;2022-08-19T02:31:11;17.88;;;16.08;;
44120;SDS011;29783;52.504;13.478;2022-08-19T02:33:39;18.45;;;15.88;;
44120;SDS011;29783;52.504;13.478;2022-08-19T02:36:06;17.83;;;14.52;;
44120;SDS011;29783;52.504;13.478;2022-08-19T02:38:32;20.55;;;15.57;;
44120;SDS011;29783;52.504;13.478;2022-08-19T02:40:59;18.35;;;13.93;;
44120;SDS011;29783;52.504;13.478;2022-08-19T02:43:28;19.48;;;14.93;;
44120;SDS011;29783;52.504;13.478;2022-08-19T02:45:55;17.40;;;14.55;;
44120;SDS011;29783;52.504;13.478;2022-08-19T02:48:22;20.35;;;15.77;;
44120;SDS011;29783;52.504;13.478;2022-08-19T02:50:50;19.55;;;16.45;;
44120;SDS011;29783;52.504;13.478;2022-08-19T02:53:20;20.50;;;18.38;;
44120;SDS011;29783;52.504;13.478;2022-08-19T02:55:47;20.35;;;18.33;;
44120;SDS011;29783;52.504;13.478;2022-08-19T02:58:13;20.17;;;18.13;;
44120;SDS011;29783;52.504;13.478;2022-08-19T03:00:44;19.20;;;17.30;;
44120;SDS011;29783;52.504;13.478;2022-08-19T03:03:15;20.17;;;18.08;;
44120;SDS011;29783;52.504;13.478;2022-08-19T03:05:41;21.80;;;19.77;;
44120;SDS011;29783;52.504;13.478;2022-08-19T03:08:07;19.95;;;17.50;;
44120;SDS011;29783;52.504;13.478;2022-08-19T03:10:41;19.15;;;17.13;;
44120;SDS011;29783;52.504;13.478;2022-08-19T03:13:09;17.90;;;16.15;;
44120;SDS011;29783;52.504;13.478;2022-08-19T03:15:39;18.98;;;16.75;;
44120;SDS011;29783;52.504;13.478;2022-08-19T03:18:05;20.45;;;16.67;;
44120;SDS011;29783;52.504;13.478;2022-08-19T03:20:31;18.98;;;16.27;;
44120;SDS011;29783;52.504;13.478;2022-08-19T03:22:57;18.42;;;16.30;;
44120;SDS011;29783;52.504;13.478;2022-08-19T03:25:23;22.23;;;16.30;;
44120;SDS011;29783;52.504;13.478;2022-08-19T03:27:49;17.00;;;15.13;;
44120;SDS011;29783;52.504;13.478;2022-08-19T03:30:15;15.73;;;14.05;;
44120;SDS011;29783;52.504;13.478;2022-08-19T03:32:40;15.77;;;14.20;;
44120;SDS011;29783;52.504;13.478;2022-08-19T03:35:06;16.05;;;14.55;;
44120;SDS011;29783;52.504;13.478;2022-08-19T03:37:32;18.42;;;14.95;;
44120;SDS011;29783;52.504;13.478;2022-08-19T03:39:58;16.42;;;14.77;;
44120;SDS011;29783;52.504;13.478;2022-08-19T03:42:23;15.55;;;13.93;;
44120;SDS011;29783;52.504;13.478;2022-08-19T03:44:51;16.00;;;14.30;;
44120;SDS011;29783;52.504;13.478;2022-08-19T03:47:17;15.05;;;13.60;;
44120;SDS011;29783;52.504;13.478;2022-08-19T03:49:43;16.05;;;14.18;;
44120;SDS011;29783;52.504;13.478;2022-08-19T03:52:09;15.60;;;14.05;;
44120;SDS011;29783;52.504;13.478;2022-08-19T03:54:35;15.80;;;13.88;;
44120;SDS011;29783;52.504;13.478;2022-08-19T03:57:03;16.17;;;14.52;;
44120;SDS011;29783;52.504;13.478;2022-08-19T03:59:31;14.65;;;13.20;;
44120;SDS011;29783;52.504;13.478;2022-08-19T04:02:00;15.73;;;13.88;;
44120;SDS011;29783;52.504;13.478;2022-08-19T04:04:27;16.67;;;14.10;;
44120;SDS011;29783;52.504;13.478;2022-08-19T04:06:54;15.65;;;14.15;;
44120;SDS011;29783;52.504;13.478;2022-08-19T04:09:20;16.70;;;15.05;;
44120;SDS011;29783;52.504;13.478;2022-08-19T04:11:47;17.77;;;14.93;;
44120;SDS011;29783;52.504;13.478;2022-08-19T04:14:16;17.25;;;15.05;;
44120;SDS011;29783;52.504;13.478;2022-08-19T04:16:44;17.33;;;15.82;;
44120;SDS011;29783;52.504;13.478;2022-08-19T04:19:11;17.65;;;15.60;;
44120;SDS011;29783;52.504;13.478;2022-08-19T04:21:37;16.80;;;15.20;;
44120;SDS011;29783;52.504;13.478;2022-08-19T04:24:03;16.60;;;15.00;;
44120;SDS011;29783;52.504;13.478;2022-08-19T04:26:31;17.58;;;15.35;;
44120;SDS011;29783;52.504;13.478;2022-08-19T04:28:59;20.92;;;15.68;;
44120;SDS011;29783;52.504;13.478;2022-08-19T04:31:27;17.02;;;15.23;;
44120;SDS011;29783;52.504;13.478;2022-08-19T04:33:58;14.85;;;13.48;;
44120;SDS011;29783;52.504;13.478;2022-08-19T04:36:29;15.82;;;14.07;;
44120;SDS011;29783;52.504;13.478;2022-08-19T04:38:57;16.98;;;12.60;;
44120;SDS011;29783;52.504;13.478;2022-08-19T04:41:24;17.02;;;13.80;;
44120;SDS011;29783;52.504;13.478;2022-08-19T04:44:09;13.75;;;12.45;;
44120;SDS011;29783;52.504;13.478;2022-08-19T04:46:35;16.70;;;13.00;;
44120;SDS011;29783;52.504;13.478;2022-08-19T04:49:02;14.20;;;12.80;;
44120;SDS011;29783;52.504;13.478;2022-08-19T04:51:30;14.38;;;12.95;;
44120;SDS011;29783;52.504;13.478;2022-08-19T04:53:56;13.98;;;12.55;;
44120;SDS011;29783;52.504;13.478;2022-08-19T04:56:23;13.63;;;12.43;;
44120;SDS011;29783;52.504;13.478;2022-08-19T04:58:51;14.38;;;12.88;;
44120;SDS011;29783;52.504;13.478;2022-08-19T05:01:19;17.27;;;12.20;;
44120;SDS011;29783;52.504;13.478;2022-08-19T05:03:46;17.73;;;13.27;;
44120;SDS011;29783;52.504;13.478;2022-08-19T05:06:13;14.82;;;12.10;;
44120;SDS011;29783;52.504;13.478;2022-08-19T05:08:41;15.35;;;11.77;;
44120;SDS011;29783;52.504;13.478;2022-08-19T05:11:13;12.98;;;11.60;;
44120;SDS011;29783;52.504;13.478;2022-08-19T05:13:45;14.52;;;11.52;;
44120;SDS011;29783;52.504;13.478;2022-08-19T05:16:13;16.25;;;12.38;;
44120;SDS011;29783;52.504;13.478;2022-08-19T05:18:40;12.98;;;11.75;;
44120;SDS011;29783;52.504;13.478;2022-08-19T05:21:25;13.63;;;12.23;;
44120;SDS011;29783;52.504;13.478;2022-08-19T05:24:10;16.27;;;12.65;;
44120;SDS011;29783;52.504;13.478;2022-08-19T05:26:38;15.05;;;12.18;;
44120;SDS011;29783;52.504;13.478;2022-08-19T05:29:06;13.13;;;11.82;;
44120;SDS011;29783;52.504;13.478;2022-08-19T05:31:33;15.75;;;11.07;;
44120;SDS011;29783;52.504;13.478;2022-08-19T05:34:00;12.35;;;11.05;;
44120;SDS011;29783;52.504;13.478;2022-08-19T05:36:26;14.73;;;10.52;;
44120;SDS011;29783;52.504;13.478;2022-08-19T05:38:53;14.93;;;10.60;;
44120;SDS011;29783;52.504;13.478;2022-08-19T05:41:20;11.25;;;10.07;;
44120;SDS011;29783;52.504;13.478;2022-08-19T05:43:51;14.65;;;10.63;;
44120;SDS011;29783;52.504;13.478;2022-08-19T05:46:18;13.52;;;10.40;;
44120;SDS011;29783;52.504;13.478;2022-08-19T05:48:44;14.75;;;9.63;;
44120;SDS011;29783;52.504;13.478;2022-08-19T05:51:11;13.13;;;9.68;;
44120;SDS011;29783;52.504;13.478;2022-08-19T05:53:37;14.57;;;11.18;;
44120;SDS011;29783;52.504;13.478;2022-08-19T05:56:04;12.95;;;9.77;;
44120;SDS011;29783;52.504;13.478;2022-08-19T05:58:31;12.52;;;9.95;;
44120;SDS011;29783;52.504;13.478;2022-08-19T06:00:57;11.02;;;9.65;;
44120;SDS011;29783;52.504;13.478;2022-08-19T06:03:29;11.02;;;9.50;;
44120;SDS011;29783;52.504;13.478;2022-08-19T06:05:55;14.82;;;9.57;;
44120;SDS011;29783;52.504;13.478;2022-08-19T06:08:23;17.02;;;10.02;;
44120;SDS011;29783;52.504;13.478;2022-08-19T06:10:49;11.13;;;9.70;;
44120;SDS011;29783;52.504;13.478;2022-08-19T06:13:14;13.90;;;10.13;;
44120;SDS011;29783;52.504;13.478;2022-08-19T06:15:40;10.48;;;9.10;;
44120;SDS011;29783;52.504;13.478;2022-08-19T06:18:09;10.60;;;9.40;;
44120;SDS011;29783;52.504;13.478;2022-08-19T06:20:34;13.93;;;9.50;;
44120;SDS011;29783;52.504;13.478;2022-08-19T06:23:00;10.90;;;9.52;;
44120;SDS011;29783;52.504;13.478;2022-08-19T06:25:26;15.88;;;10.10;;
44120;SDS011;29783;52.504;13.478;2022-08-19T06:27:51;11.88;;;10.23;;
44120;SDS011;29783;52.504;13.478;2022-08-19T06:30:18;11.60;;;9.45;;
44120;SDS011;29783;52.504;13.478;2022-08-19T06:32:44;11.32;;;9.45;;
44120;SDS011;29783;52.504;13.478;2022-08-19T06:35:09;10.00;;;8.75;;
44120;SDS011;29783;52.504;13.478;2022-08-19T06:37:36;9.75;;;8.40;;
44120;SDS011;29783;52.504;13.478;2022-08-19T06:40:02;22.50;;;9.10;;
44120;SDS011;29783;52.504;13.478;2022-08-19T06:42:29;13.55;;;9.02;;
44120;SDS011;29783;52.504;13.478;2022-08-19T06:44:55;12.77;;;9.55;;
44120;SDS011;29783;52.504;13.478;2022-08-19T06:47:21;11.25;;;9.10;;
44120;SDS011;29783;52.504;13.478;2022-08-19T06:49:47;14.98;;;9.55;;
44120;SDS011;29783;52.504;13.478;2022-08-19T06:52:13;11.50;;;9.27;;
44120;SDS011;29783;52.504;13.478;2022-08-19T06:54:39;11.32;;;9.95;;
44120;SDS011;29783;52.504;13.478;2022-08-19T06:57:06;12.65;;;8.43;;
44120;SDS011;29783;52.504;13.478;2022-08-19T06:59:34;10.40;;;9.40;;
44120;SDS011;29783;52.504;13.478;2022-08-19T07:02:00;14.10;;;8.93;;
44120;SDS011;29783;52.504;13.478;2022-08-19T07:04:31;10.98;;;8.73;;
44120;SDS011;29783;52.504;13.478;2022-08-19T07:06:59;12.20;;;8.90;;
44120;SDS011;29783;52.504;13.478;2022-08-19T07:09:27;11.80;;;9.60;;
44120;SDS011;29783;52.504;13.478;2022-08-19T07:11:53;11.85;;;9.05;;
44120;SDS011;29783;52.504;13.478;2022-08-19T07:14:21;11.13;;;9.55;;
44120;SDS011;29783;52.504;13.478;2022-08-19T07:16:50;17.08;;;10.02;;
44120;SDS011;29783;52.504;13.478;2022-08-19T07:19:20;13.50;;;9.93;;
44120;SDS011;29783;52.504;13.478;2022-08-19T07:21:47;13.45;;;10.00;;
44120;SDS011;29783;52.504;13.478;2022-08-19T07:24:14;11.00;;;9.93;;
44120;SDS011;29783;52.504;13.478;2022-08-19T07:26:41;14.68;;;10.02;;
44120;SDS011;29783;52.504;13.478;2022-08-19T07:29:08;11.32;;;10.13;;
44120;SDS011;29783;52.504;13.478;2022-08-19T07:31:35;14.82;;;10.15;;
44120;SDS011;29783;52.504;13.478;2022-08-19T07:34:03;13.45;;;10.05;;
44120;SDS011;29783;52.504;13.478;2022-08-19T07:36:34;11.75;;;10.02;;
44120;SDS011;29783;52.504;13.478;2022-08-19T07:39:03;13.75;;;9.95;;
44120;SDS011;29783;52.504;13.478;2022-08-19T07:41:34;15.27;;;10.32;;
44120;SDS011;29783;52.504;13.478;2022-08-19T07:44:02;14.90;;;10.63;;
44120;SDS011;29783;52.504;13.478;2022-08-19T07:46:32;11.60;;;10.40;;
44120;SDS011;29783;52.504;13.478;2022-08-19T07:48:59;12.15;;;10.82;;
44120;SDS011;29783;52.504;13.478;2022-08-19T07:51:25;16.48;;;10.23;;
44120;SDS011;29783;52.504;13.478;2022-08-19T07:53:51;14.20;;;10.23;;
44120;SDS011;29783;52.504;13.478;2022-08-19T07:56:20;14.52;;;10.38;;
44120;SDS011;29783;52.504;13.478;2022-08-19T07:58:47;18.67;;;11.23;;
44120;SDS011;29783;52.504;13.478;2022-08-19T08:01:15;13.05;;;10.80;;
44120;SDS011;29783;52.504;13.478;2022-08-19T08:03:44;12.13;;;10.80;;
44120;SDS011;29783;52.504;13.478;2022-08-19T08:06:29;14.90;;;11.10;;
44120;SDS011;29783;52.504;13.478;2022-08-19T08:09:13;11.88;;;10.20;;
44120;SDS011;29783;52.504;13.478;2022-08-19T08:11:44;13.93;;;10.57;;
44120;SDS011;29783;52.504;13.478;2022-08-19T08:14:26;11.77;;;10.55;;
44120;SDS011;29783;52.504;13.478;2022-08-19T08:16:54;11.88;;;10.40;;
44120;SDS011;29783;52.504;13.478;2022-08-19T08:19:21;14.30;;;10.80;;
44120;SDS011;29783;52.504;13.478;2022-08-19T08:21:48;12.43;;;10.77;;
44120;SDS011;29783;52.504;13.478;2022-08-19T08:24:15;12.88;;;10.63;;
44120;SDS011;29783;52.504;13.478;2022-08-19T08:26:41;13.73;;;11.05;;
44120;SDS011;29783;52.504;13.478;2022-08-19T08:29:09;13.23;;;10.13;;
44120;SDS011;29783;52.504;13.478;2022-08-19T08:31:39;11.85;;;9.73;;
44120;SDS011;29783;52.504;13.478;2022-08-19T08:34:07;14.93;;;10.80;;
44120;SDS011;29783;52.504;13.478;2022-08-19T08:36:35;17.90;;;10.55;;
44120;SDS011;29783;52.504;13.478;2022-08-19T08:39:05;11.85;;;9.90;;
44120;SDS011;29783;52.504;13.478;2022-08-19T08:41:34;12.52;;;9.25;;
44120;SDS011;29783;52.504;13.478;2022-08-19T08:44:20;13.20;;;9.95;;
44120;SDS011;29783;52.504;13.478;2022-08-19T08:47:09;14.73;;;9.32;;
44120;SDS011;29783;52.504;13.478;2022-08-19T08:49:44;12.77;;;9.27;;
44120;SDS011;29783;52.504;13.478;2022-08-19T08:52:24;11.70;;;8.63;;
44120;SDS011;29783;52.504;13.478;2022-08-19T08:54:50;11.05;;;8.60;;
44120;SDS011;29783;52.504;13.478;2022-08-19T08:57:21;11.70;;;9.73;;
44120;SDS011;29783;52.504;13.478;2022-08-19T09:00:06;11.50;;;9.45;;
44120;SDS011;29783;52.504;13.478;2022-08-19T09:02:34;12.30;;;9.68;;
44120;SDS011;29783;52.504;13.478;2022-08-19T09:04:59;13.05;;;9.68;;
44120;SDS011;29783;52.504;13.478;2022-08-19T09:10:15;14.15;;;10.40;;
44120;SDS011;29783;52.504;13.478;2022-08-19T09:15:39;15.30;;;10.93;;
44120;SDS011;29783;52.504;13.478;2022-08-19T09:18:09;12.15;;;10.40;;
44120;SDS011;29783;52.504;13.478;2022-08-19T09:20:36;14.55;;;11.07;;
44120;SDS011;29783;52.504;13.478;2022-08-19T09:23:01;13.77;;;11.38;;
44120;SDS011;29783;52.504;13.478;2022-08-19T09:25:28;14.27;;;10.02;;
44120;SDS011;29783;52.504;13.478;2022-08-19T09:27:55;15.20;;;10.82;;
44120;SDS011;29783;52.504;13.478;2022-08-19T09:30:24;14.13;;;11.23;;
44120;SDS011;29783;52.504;13.478;2022-08-19T09:32:55;13.02;;;11.43;;
44120;SDS011;29783;52.504;13.478;2022-08-19T09:35:21;13.15;;;10.32;;
44120;SDS011;29783;52.504;13.478;2022-08-19T09:37:49;11.30;;;10.10;;
44120;SDS011;29783;52.504;13.478;2022-08-19T09:40:16;13.40;;;9.75;;
44120;SDS011;29783;52.504;13.478;2022-08-19T09:42:46;12.88;;;10.00;;
44120;SDS011;29783;52.504;13.478;2022-08-19T09:45:13;15.45;;;10.57;;
44120;SDS011;29783;52.504;13.478;2022-08-19T09:47:39;12.32;;;11.02;;
44120;SDS011;29783;52.504;13.478;2022-08-19T09:50:06;11.15;;;10.05;;
44120;SDS011;29783;52.504;13.478;2022-08-19T09:52:33;15.13;;;11.27;;
44120;SDS011;29783;52.504;13.478;2022-08-19T09:55:01;11.13;;;9.98;;
44120;SDS011;29783;52.504;13.478;2022-08-19T09:57:28;14.45;;;10.80;;
44120;SDS011;29783;52.504;13.478;2022-08-19T09:59:54;12.00;;;10.80;;
44120;SDS011;29783;52.504;13.478;2022-08-19T10:02:20;10.73;;;9.63;;
44120;SDS011;29783;52.504;13.478;2022-08-19T10:04:46;16.10;;;9.07;;
44120;SDS011;29783;52.504;13.478;2022-08-19T10:07:30;10.85;;;9.75;;
44120;SDS011;29783;52.504;13.478;2022-08-19T10:09:56;11.50;;;9.85;;
44120;SDS011;29783;52.504;13.478;2022-08-19T10:12:22;12.85;;;10.05;;
44120;SDS011;29783;52.504;13.478;2022-08-19T10:14:48;11.10;;;9.15;;
44120;SDS011;29783;52.504;13.478;2022-08-19T10:17:16;12.18;;;9.40;;
44120;SDS011;29783;52.504;13.478;2022-08-19T10:19:42;11.35;;;9.00;;
44120;SDS011;29783;52.504;13.478;2022-08-19T10:22:08;13.35;;;10.13;;
44120;SDS011;29783;52.504;13.478;2022-08-19T10:24:38;15.13;;;10.07;;
44120;SDS011;29783;52.504;13.478;2022-08-19T10:27:04;10.18;;;9.18;;
44120;SDS011;29783;52.504;13.478;2022-08-19T10:29:30;12.60;;;8.98;;
44120;SDS011;29783;52.504;13.478;2022-08-19T10:31:57;12.20;;;9.40;;
44120;SDS011;29783;52.504;13.478;2022-08-19T10:34:24;14.82;;;8.90;;
44120;SDS011;29783;52.504;13.478;2022-08-19T10:36:51;10.73;;;8.82;;
44120;SDS011;29783;52.504;13.478;2022-08-19T10:39:16;11.90;;;8.88;;
44120;SDS011;29783;52.504;13.478;2022-08-19T10:41:43;10.00;;;8.52;;
44120;SDS011;29783;52.504;13.478;2022-08-19T10:44:10;10.13;;;8.90;;
44120;SDS011;29783;52.504;13.478;2022-08-19T10:46:38;22.20;;;9.10;;
44120;SDS011;29783;52.504;13.478;2022-08-19T10:49:06;12.57;;;8.95;;
44120;SDS011;29783;52.504;13.478;2022-08-19T10:51:34;12.00;;;8.10;;
44120;SDS011;29783;52.504;13.478;2022-08-19T10:54:37;15.77;;;9.07;;
44120;SDS011;29783;52.504;13.478;2022-08-19T10:57:22;18.15;;;9.02;;
44120;SDS011;29783;52.504;13.478;2022-08-19T10:59:54;13.88;;;8.68;;
44120;SDS011;29783;52.504;13.478;2022-08-19T11:02:20;12.45;;;8.68;;
44120;SDS011;29783;52.504;13.478;2022-08-19T11:04:46;11.40;;;8.82;;
44120;SDS011;29783;52.504;13.478;2022-08-19T11:07:14;11.02;;;8.63;;
44120;SDS011;29783;52.504;13.478;2022-08-19T11:09:41;13.95;;;9.48;;
44120;SDS011;29783;52.504;13.478;2022-08-19T11:12:07;11.82;;;8.15;;
44120;SDS011;29783;52.504;13.478;2022-08-19T11:14:34;14.07;;;8.90;;
44120;SDS011;29783;52.504;13.478;2022-08-19T11:17:01;10.95;;;9.82;;
44120;SDS011;29783;52.504;13.478;2022-08-19T11:19:28;12.68;;;9.30;;
44120;SDS011;29783;52.504;13.478;2022-08-19T11:21:54;13.15;;;10.18;;
44120;SDS011;29783;52.504;13.478;2022-08-19T11:24:21;11.52;;;9.25;;
44120;SDS011;29783;52.504;13.478;2022-08-19T11:26:50;13.18;;;9.27;;
44120;SDS011;29783;52.504;13.478;2022-08-19T11:29:18;16.10;;;9.45;;
44120;SDS011;29783;52.504;13.478;2022-08-19T11:31:46;11.40;;;9.43;;
44120;SDS011;29783;52.504;13.478;2022-08-19T11:34:14;14.70;;;9.60;;
44120;SDS011;29783;52.504;13.478;2022-08-19T11:36:44;13.68;;;9.55;;
44120;SDS011;29783;52.504;13.478;2022-08-19T11:39:13;10.85;;;9.77;;
44120;SDS011;29783;52.504;13.478;2022-08-19T11:41:41;12.77;;;9.07;;
44120;SDS011;29783;52.504;13.478;2022-08-19T11:44:07;13.52;;;8.85;;
44120;SDS011;29783;52.504;13.478;2022-08-19T11:46:33;10.77;;;8.80;;
44120;SDS011;29783;52.504;13.478;2022-08-19T11:49:00;14.18;;;8.65;;
44120;SDS011;29783;52.504;13.478;2022-08-19T11:51:28;10.70;;;9.10;;
44120;SDS011;29783;52.504;13.478;2022-08-19T11:53:55;9.48;;;7.68;;
44120;SDS011;29783;52.504;13.478;2022-08-19T11:56:23;9.85;;;7.78;;
44120;SDS011;29783;52.504;13.478;2022-08-19T11:58:50;10.95;;;7.32;;
44120;SDS011;29783;52.504;13.478;2022-08-19T12:01:17;9.65;;;7.57;;
44120;SDS011;29783;52.504;13.478;2022-08-19T12:03:45;8.32;;;7.53;;
44120;SDS011;29783;52.504;13.478;2022-08-19T12:06:29;11.82;;;7.15;;
44120;SDS011;29783;52.504;13.478;2022-08-19T12:09:00;12.38;;;7.53;;
44120;SDS011;29783;52.504;13.478;2022-08-19T12:11:29;8.65;;;7.85;;
44120;SDS011;29783;52.504;13.478;2022-08-19T12:13:55;10.23;;;7.18;;
44120;SDS011;29783;52.504;13.478;2022-08-19T12:16:23;8.82;;;7.00;;
44120;SDS011;29783;52.504;13.478;2022-08-19T12:18:51;14.07;;;6.90;;
44120;SDS011;29783;52.504;13.478;2022-08-19T12:21:19;7.97;;;7.18;;
44120;SDS011;29783;52.504;13.478;2022-08-19T12:23:47;8.05;;;7.25;;
44120;SDS011;29783;52.504;13.478;2022-08-19T12:26:14;7.60;;;6.85;;
44120;SDS011;29783;52.504;13.478;2022-08-19T12:28:40;10.73;;;6.68;;
44120;SDS011;29783;52.504;13.478;2022-08-19T12:31:09;10.48;;;6.55;;
44120;SDS011;29783;52.504;13.478;2022-08-19T12:33:37;8.75;;;6.65;;
44120;SDS011;29783;52.504;13.478;2022-08-19T12:36:04;7.57;;;6.63;;
44120;SDS011;29783;52.504;13.478;2022-08-19T12:38:32;7.75;;;6.38;;
44120;SDS011;29783;52.504;13.478;2022-08-19T12:40:59;6.07;;;5.47;;
44120;SDS011;29783;52.504;13.478;2022-08-19T12:43:25;8.48;;;5.25;;
44120;SDS011;29783;52.504;13.478;2022-08-19T12:45:51;12.52;;;6.07;;
44120;SDS011;29783;52.504;13.478;2022-08-19T12:48:17;10.10;;;5.97;;
44120;SDS011;29783;52.504;13.478;2022-08-19T12:50:43;9.40;;;6.10;;
44120;SDS011;29783;52.504;13.478;2022-08-19T12:53:10;12.77;;;5.95;;
44120;SDS011;29783;52.504;13.478;2022-08-19T12:55:36;7.45;;;6.38;;
44120;SDS011;29783;52.504;13.478;2022-08-19T12:58:02;13.65;;;5.75;;
44120;SDS011;29783;52.504;13.478;2022-08-19T13:00:28;6.88;;;5.70;;
44120;SDS011;29783;52.504;13.478;2022-08-19T13:02:57;7.32;;;5.38;;
44120;SDS011;29783;52.504;13.478;2022-08-19T13:05:25;8.50;;;6.47;;
44120;SDS011;29783;52.504;13.478;2022-08-19T13:07:53;7.25;;;5.28;;
44120;SDS011;29783;52.504;13.478;2022-08-19T13:10:22;6.97;;;5.93;;
44120;SDS011;29783;52.504;13.478;2022-08-19T13:12:51;9.18;;;5.80;;
44120;SDS011;29783;52.504;13.478;2022-08-19T13:15:18;6.95;;;5.90;;
44120;SDS011;29783;52.504;13.478;2022-08-19T13:17:46;11.95;;;6.50;;
44120;SDS011;29783;52.504;13.478;2022-08-19T13:20:14;9.85;;;6.15;;
44120;SDS011;29783;52.504;13.478;2022-08-19T13:22:42;8.70;;;6.18;;
44120;SDS011;29783;52.504;13.478;2022-08-19T13:25:09;9.75;;;6.20;;
44120;SDS011;29783;52.504;13.478;2022-08-19T13:27:36;9.43;;;6.45;;
44120;SDS011;29783;52.504;13.478;2022-08-19T13:30:03;10.25;;;6.88;;
44120;SDS011;29783;52.504;13.478;2022-08-19T13:32:50;8.77;;;7.10;;
44120;SDS011;29783;52.504;13.478;2022-08-19T13:35:34;8.63;;;6.57;;
44120;SDS011;29783;52.504;13.478;2022-08-19T13:38:00;11.48;;;7.00;;
44120;SDS011;29783;52.504;13.478;2022-08-19T13:40:29;10.75;;;6.93;;
44120;SDS011;29783;52.504;13.478;2022-08-19T13:42:58;6.75;;;6.07;;
44120;SDS011;29783;52.504;13.478;2022-08-19T13:45:27;10.65;;;7.10;;
44120;SDS011;29783;52.504;13.478;2022-08-19T13:47:55;11.05;;;6.75;;
44120;SDS011;29783;52.504;13.478;2022-08-19T13:50:23;7.75;;;6.85;;
44120;SDS011;29783;52.504;13.478;2022-08-19T13:52:53;6.95;;;6.25;;
44120;SDS011;29783;52.504;13.478;2022-08-19T13:55:20;9.48;;;6.65;;
44120;SDS011;29783;52.504;13.478;2022-08-19T13:57:49;12.00;;;7.00;;
44120;SDS011;29783;52.504;13.478;2022-08-19T14:00:20;6.78;;;6.18;;
44120;SDS011;29783;52.504;13.478;2022-08-19T14:02:50;12.50;;;6.97;;
44120;SDS011;29783;52.504;13.478;2022-08-19T14:05:16;7.43;;;6.63;;
44120;SDS011;29783;52.504;13.478;2022-08-19T14:07:43;8.88;;;6.93;;
44120;SDS011;29783;52.504;13.478;2022-08-19T14:10:09;9.45;;;6.65;;
44120;SDS011;29783;52.504;13.478;2022-08-19T14:12:36;8.82;;;6.57;;
44120;SDS011;29783;52.504;13.478;2022-08-19T14:15:03;9.02;;;6.93;;
44120;SDS011;29783;52.504;13.478;2022-08-19T14:17:30;10.80;;;7.40;;
44120;SDS011;29783;52.504;13.478;2022-08-19T14:19:59;7.60;;;6.80;;
44120;SDS011;29783;52.504;13.478;2022-08-19T14:22:29;9.95;;;6.78;;
44120;SDS011;29783;52.504;13.478;2022-08-19T14:24:56;8.90;;;7.03;;
44120;SDS011;29783;52.504;13.478;2022-08-19T14:27:22;11.73;;;7.07;;